sensor_id;sensor_type;location;lat;lon;timestamp;temperature;humidity
51996;DHT22;38010;53.264;6.592;2022-09-28T00:01:23;15.50;99.90
51996;DHT22;38010;53.264;6.592;2022-09-28T00:03:52;15.50;99.90
51996;DHT22;38010;53.264;6.592;2022-09-28T00:06:21;15.50;99.90
51996;DHT22;38010;53.264;6.592;2022-09-28T00:08:49;15.50;99.90
51996;DHT22;38010;53.264;6.592;2022-09-28T00:11:15;15.50;99.90
51996;DHT22;38010;53.264;6.592;2022-09-28T00:13:42;15.40;99.90
51996;DHT22;38010;53.264;6.592;2022-09-28T00:16:14;15.50;99.90
51996;DHT22;38010;53.264;6.592;2022-09-28T00:18:41;15.40;99.90
51996;DHT22;38010;53.264;6.592;2022-09-28T00:21:11;15.50;99.90
51996;DHT22;38010;53.264;6.592;2022-09-28T00:23:37;15.40;99.90
51996;DHT22;38010;53.264;6.592;2022-09-28T00:26:23;15.40;99.90
51996;DHT22;38010;53.264;6.592;2022-09-28T00:28:57;15.40;99.90
51996;DHT22;38010;53.264;6.592;2022-09-28T00:31:24;15.40;99.90
51996;DHT22;38010;53.264;6.592;2022-09-28T00:33:51;15.40;99.90
51996;DHT22;38010;53.264;6.592;2022-09-28T00:36:18;15.40;99.90
51996;DHT22;38010;53.264;6.592;2022-09-28T00:38:44;15.40;99.90
51996;DHT22;38010;53.264;6.592;2022-09-28T00:41:11;15.40;99.90
51996;DHT22;38010;53.264;6.592;2022-09-28T00:43:37;15.40;99.90
51996;DHT22;38010;53.264;6.592;2022-09-28T00:46:05;15.40;99.90
51996;DHT22;38010;53.264;6.592;2022-09-28T00:48:35;15.50;99.90
51996;DHT22;38010;53.264;6.592;2022-09-28T00:51:06;15.40;99.90
51996;DHT22;38010;53.264;6.592;2022-09-28T00:53:35;15.40;99.90
51996;DHT22;38010;53.264;6.592;2022-09-28T00:56:15;15.40;99.90
51996;DHT22;38010;53.264;6.592;2022-09-28T00:58:46;15.40;99.90
51996;DHT22;38010;53.264;6.592;2022-09-28T01:01:12;15.40;99.90
51996;DHT22;38010;53.264;6.592;2022-09-28T01:03:39;15.40;99.90
51996;DHT22;38010;53.264;6.592;2022-09-28T01:06:16;15.40;99.90
51996;DHT22;38010;53.264;6.592;2022-09-28T01:08:43;15.40;99.90
51996;DHT22;38010;53.264;6.592;2022-09-28T01:11:10;15.40;99.90
51996;DHT22;38010;53.264;6.592;2022-09-28T01:13:36;15.40;99.90
51996;DHT22;38010;53.264;6.592;2022-09-28T01:16:19;15.40;99.90
51996;DHT22;38010;53.264;6.592;2022-09-28T01:21:58;15.40;99.90
51996;DHT22;38010;53.264;6.592;2022-09-28T01:30:05;15.40;99.90
51996;DHT22;38010;53.264;6.592;2022-09-28T01:32:37;15.40;99.90
51996;DHT22;38010;53.264;6.592;2022-09-28T01:38:16;15.30;99.90
51996;DHT22;38010;53.264;6.592;2022-09-28T01:40:43;15.30;99.90
51996;DHT22;38010;53.264;6.592;2022-09-28T01:43:27;15.40;99.90
51996;DHT22;38010;53.264;6.592;2022-09-28T01:46:00;15.30;99.90
51996;DHT22;38010;53.264;6.592;2022-09-28T01:50:59;15.30;99.90
51996;DHT22;38010;53.264;6.592;2022-09-28T01:53:41;15.30;99.90
51996;DHT22;38010;53.264;6.592;2022-09-28T01:56:17;15.30;99.90
51996;DHT22;38010;53.264;6.592;2022-09-28T01:58:46;15.40;99.90
51996;DHT22;38010;53.264;6.592;2022-09-28T02:01:17;15.30;99.90
51996;DHT22;38010;53.264;6.592;2022-09-28T02:03:51;15.30;99.90
51996;DHT22;38010;53.264;6.592;2022-09-28T02:06:23;15.30;99.90
51996;DHT22;38010;53.264;6.592;2022-09-28T02:08:55;15.30;99.90
51996;DHT22;38010;53.264;6.592;2022-09-28T02:11:22;15.30;99.90
51996;DHT22;38010;53.264;6.592;2022-09-28T02:13:59;15.30;99.90
51996;DHT22;38010;53.264;6.592;2022-09-28T02:16:43;15.30;99.90
51996;DHT22;38010;53.264;6.592;2022-09-28T02:19:11;15.30;99.90
51996;DHT22;38010;53.264;6.592;2022-09-28T02:24:19;15.30;99.90
51996;DHT22;38010;53.264;6.592;2022-09-28T02:26:47;15.30;99.90
51996;DHT22;38010;53.264;6.592;2022-09-28T02:29:14;15.30;99.90
51996;DHT22;38010;53.264;6.592;2022-09-28T02:31:40;15.40;99.90
51996;DHT22;38010;53.264;6.592;2022-09-28T02:34:06;15.30;99.90
51996;DHT22;38010;53.264;6.592;2022-09-28T02:36:32;15.30;99.90
51996;DHT22;38010;53.264;6.592;2022-09-28T02:38:59;15.30;99.90
51996;DHT22;38010;53.264;6.592;2022-09-28T02:47:07;15.30;99.90
51996;DHT22;38010;53.264;6.592;2022-09-28T02:53:01;15.30;99.90
51996;DHT22;38010;53.264;6.592;2022-09-28T03:01:07;15.30;99.90
51996;DHT22;38010;53.264;6.592;2022-09-28T03:03:47;15.30;99.90
51996;DHT22;38010;53.264;6.592;2022-09-28T03:06:19;15.30;99.90
51996;DHT22;38010;53.264;6.592;2022-09-28T03:09:22;15.30;99.90
51996;DHT22;38010;53.264;6.592;2022-09-28T03:11:56;15.30;99.90
51996;DHT22;38010;53.264;6.592;2022-09-28T03:14:23;15.30;99.90
51996;DHT22;38010;53.264;6.592;2022-09-28T03:16:49;15.20;99.90
51996;DHT22;38010;53.264;6.592;2022-09-28T03:19:17;15.30;99.90
51996;DHT22;38010;53.264;6.592;2022-09-28T03:21:44;15.30;99.90
51996;DHT22;38010;53.264;6.592;2022-09-28T03:24:10;15.20;99.90
51996;DHT22;38010;53.264;6.592;2022-09-28T03:26:37;15.20;99.90
51996;DHT22;38010;53.264;6.592;2022-09-28T03:29:03;15.30;99.90
51996;DHT22;38010;53.264;6.592;2022-09-28T03:31:28;15.30;99.90
51996;DHT22;38010;53.264;6.592;2022-09-28T03:33:54;15.20;99.90
51996;DHT22;38010;53.264;6.592;2022-09-28T03:36:20;15.30;99.90
51996;DHT22;38010;53.264;6.592;2022-09-28T03:38:46;15.30;99.90
51996;DHT22;38010;53.264;6.592;2022-09-28T03:41:12;15.20;99.90
51996;DHT22;38010;53.264;6.592;2022-09-28T03:43:37;15.30;99.90
51996;DHT22;38010;53.264;6.592;2022-09-28T03:46:03;15.20;99.90
51996;DHT22;38010;53.264;6.592;2022-09-28T03:48:34;15.20;99.90
51996;DHT22;38010;53.264;6.592;2022-09-28T03:51:02;15.20;99.90
51996;DHT22;38010;53.264;6.592;2022-09-28T03:53:29;15.20;99.90
51996;DHT22;38010;53.264;6.592;2022-09-28T03:56:00;15.20;99.90
51996;DHT22;38010;53.264;6.592;2022-09-28T03:58:27;15.20;99.90
51996;DHT22;38010;53.264;6.592;2022-09-28T04:00:52;15.20;99.90
51996;DHT22;38010;53.264;6.592;2022-09-28T04:03:18;15.20;99.90
51996;DHT22;38010;53.264;6.592;2022-09-28T04:05:51;15.20;99.90
51996;DHT22;38010;53.264;6.592;2022-09-28T04:08:17;15.20;99.90
51996;DHT22;38010;53.264;6.592;2022-09-28T04:10:42;15.20;99.90
51996;DHT22;38010;53.264;6.592;2022-09-28T04:13:08;15.20;99.90
51996;DHT22;38010;53.264;6.592;2022-09-28T04:15:34;15.20;99.90
51996;DHT22;38010;53.264;6.592;2022-09-28T04:18:00;15.20;99.90
51996;DHT22;38010;53.264;6.592;2022-09-28T04:20:26;15.20;99.90
51996;DHT22;38010;53.264;6.592;2022-09-28T04:22:52;15.20;99.90
51996;DHT22;38010;53.264;6.592;2022-09-28T04:25:17;15.20;99.90
51996;DHT22;38010;53.264;6.592;2022-09-28T04:27:43;15.20;99.90
51996;DHT22;38010;53.264;6.592;2022-09-28T04:30:28;15.20;99.90
51996;DHT22;38010;53.264;6.592;2022-09-28T04:32:53;15.20;99.90
51996;DHT22;38010;53.264;6.592;2022-09-28T04:35:19;15.20;99.90
51996;DHT22;38010;53.264;6.592;2022-09-28T04:37:45;15.10;99.90
51996;DHT22;38010;53.264;6.592;2022-09-28T04:40:10;15.20;99.90
51996;DHT22;38010;53.264;6.592;2022-09-28T04:42:36;15.10;99.90
51996;DHT22;38010;53.264;6.592;2022-09-28T04:45:02;15.10;99.90
51996;DHT22;38010;53.264;6.592;2022-09-28T04:47:29;15.10;99.90
51996;DHT22;38010;53.264;6.592;2022-09-28T04:49:55;15.10;99.90
51996;DHT22;38010;53.264;6.592;2022-09-28T04:52:20;15.10;99.90
51996;DHT22;38010;53.264;6.592;2022-09-28T04:54:46;15.10;99.90
51996;DHT22;38010;53.264;6.592;2022-09-28T04:57:12;15.10;99.90
51996;DHT22;38010;53.264;6.592;2022-09-28T04:59:37;15.10;99.90
51996;DHT22;38010;53.264;6.592;2022-09-28T05:02:03;15.10;99.90
51996;DHT22;38010;53.264;6.592;2022-09-28T05:04:29;15.10;99.90
51996;DHT22;38010;53.264;6.592;2022-09-28T05:06:56;15.10;99.90
51996;DHT22;38010;53.264;6.592;2022-09-28T05:09:21;15.10;99.90
51996;DHT22;38010;53.264;6.592;2022-09-28T05:11:50;15.10;99.90
51996;DHT22;38010;53.264;6.592;2022-09-28T05:14:18;15.10;99.90
51996;DHT22;38010;53.264;6.592;2022-09-28T05:16:46;15.10;99.90
51996;DHT22;38010;53.264;6.592;2022-09-28T05:19:12;15.10;99.90
51996;DHT22;38010;53.264;6.592;2022-09-28T05:21:37;15.10;99.90
51996;DHT22;38010;53.264;6.592;2022-09-28T05:24:03;15.10;99.90
51996;DHT22;38010;53.264;6.592;2022-09-28T05:26:32;15.10;99.90
51996;DHT22;38010;53.264;6.592;2022-09-28T05:28:58;15.10;99.90
51996;DHT22;38010;53.264;6.592;2022-09-28T05:31:23;15.10;99.90
51996;DHT22;38010;53.264;6.592;2022-09-28T05:33:51;15.10;99.90
51996;DHT22;38010;53.264;6.592;2022-09-28T05:36:18;15.10;99.90
51996;DHT22;38010;53.264;6.592;2022-09-28T05:38:44;15.10;99.90
51996;DHT22;38010;53.264;6.592;2022-09-28T05:41:10;15.10;99.90
51996;DHT22;38010;53.264;6.592;2022-09-28T05:43:36;15.10;99.90
51996;DHT22;38010;53.264;6.592;2022-09-28T05:46:03;15.10;99.90
51996;DHT22;38010;53.264;6.592;2022-09-28T05:48:29;15.10;99.90
51996;DHT22;38010;53.264;6.592;2022-09-28T05:50:55;15.10;99.90
51996;DHT22;38010;53.264;6.592;2022-09-28T05:53:20;15.10;99.90
51996;DHT22;38010;53.264;6.592;2022-09-28T05:55:46;15.10;99.90
51996;DHT22;38010;53.264;6.592;2022-09-28T05:58:12;15.10;99.90
51996;DHT22;38010;53.264;6.592;2022-09-28T06:00:38;15.10;99.90
51996;DHT22;38010;53.264;6.592;2022-09-28T06:03:06;15.10;99.90
51996;DHT22;38010;53.264;6.592;2022-09-28T06:05:35;15.10;99.90
51996;DHT22;38010;53.264;6.592;2022-09-28T06:08:02;15.10;99.90
51996;DHT22;38010;53.264;6.592;2022-09-28T06:10:32;15.10;99.90
51996;DHT22;38010;53.264;6.592;2022-09-28T06:12:58;15.10;99.90
51996;DHT22;38010;53.264;6.592;2022-09-28T06:15:25;15.10;99.90
51996;DHT22;38010;53.264;6.592;2022-09-28T06:18:11;15.10;99.90
51996;DHT22;38010;53.264;6.592;2022-09-28T06:20:41;15.10;99.90
51996;DHT22;38010;53.264;6.592;2022-09-28T06:23:08;15.10;99.90
51996;DHT22;38010;53.264;6.592;2022-09-28T06:25:34;15.10;99.90
51996;DHT22;38010;53.264;6.592;2022-09-28T06:28:05;15.10;99.90
51996;DHT22;38010;53.264;6.592;2022-09-28T06:30:33;15.10;99.90
51996;DHT22;38010;53.264;6.592;2022-09-28T06:33:00;15.10;99.90
51996;DHT22;38010;53.264;6.592;2022-09-28T06:35:28;15.10;99.90
51996;DHT22;38010;53.264;6.592;2022-09-28T06:37:55;15.10;99.90
51996;DHT22;38010;53.264;6.592;2022-09-28T06:40:22;15.10;99.90
51996;DHT22;38010;53.264;6.592;2022-09-28T06:42:58;15.10;99.90
51996;DHT22;38010;53.264;6.592;2022-09-28T06:45:25;15.10;99.90
51996;DHT22;38010;53.264;6.592;2022-09-28T06:47:58;15.10;99.90
51996;DHT22;38010;53.264;6.592;2022-09-28T06:50:26;15.10;99.90
51996;DHT22;38010;53.264;6.592;2022-09-28T06:52:53;15.10;99.90
51996;DHT22;38010;53.264;6.592;2022-09-28T06:55:20;15.10;99.90
51996;DHT22;38010;53.264;6.592;2022-09-28T06:57:46;15.10;99.90
51996;DHT22;38010;53.264;6.592;2022-09-28T07:00:12;15.10;99.90
51996;DHT22;38010;53.264;6.592;2022-09-28T07:02:38;15.10;99.90
51996;DHT22;38010;53.264;6.592;2022-09-28T07:05:04;15.10;99.90
51996;DHT22;38010;53.264;6.592;2022-09-28T07:07:32;15.10;99.90
51996;DHT22;38010;53.264;6.592;2022-09-28T07:09:58;15.10;99.90
51996;DHT22;38010;53.264;6.592;2022-09-28T07:12:23;15.10;99.90
51996;DHT22;38010;53.264;6.592;2022-09-28T07:14:50;15.10;99.90
51996;DHT22;38010;53.264;6.592;2022-09-28T07:17:21;15.10;99.90
51996;DHT22;38010;53.264;6.592;2022-09-28T07:19:47;15.10;99.90
51996;DHT22;38010;53.264;6.592;2022-09-28T07:22:18;15.10;99.90
51996;DHT22;38010;53.264;6.592;2022-09-28T07:24:44;15.10;99.90
51996;DHT22;38010;53.264;6.592;2022-09-28T07:27:10;15.10;99.90
51996;DHT22;38010;53.264;6.592;2022-09-28T07:29:36;15.10;99.90
51996;DHT22;38010;53.264;6.592;2022-09-28T07:32:01;15.10;99.90
51996;DHT22;38010;53.264;6.592;2022-09-28T07:34:27;15.10;99.90
51996;DHT22;38010;53.264;6.592;2022-09-28T07:36:53;15.10;99.90
51996;DHT22;38010;53.264;6.592;2022-09-28T07:39:22;15.10;99.90
51996;DHT22;38010;53.264;6.592;2022-09-28T07:41:48;15.10;99.90
51996;DHT22;38010;53.264;6.592;2022-09-28T07:44:13;15.10;99.90
51996;DHT22;38010;53.264;6.592;2022-09-28T07:46:39;15.10;99.90
51996;DHT22;38010;53.264;6.592;2022-09-28T07:49:05;15.10;99.90
51996;DHT22;38010;53.264;6.592;2022-09-28T07:51:32;15.10;99.90
51996;DHT22;38010;53.264;6.592;2022-09-28T07:53:58;15.10;99.90
51996;DHT22;38010;53.264;6.592;2022-09-28T07:56:24;15.10;99.90
51996;DHT22;38010;53.264;6.592;2022-09-28T07:58:50;15.10;99.90
51996;DHT22;38010;53.264;6.592;2022-09-28T08:01:16;15.10;99.90
51996;DHT22;38010;53.264;6.592;2022-09-28T08:03:44;15.10;99.90
51996;DHT22;38010;53.264;6.592;2022-09-28T08:06:13;15.10;99.90
51996;DHT22;38010;53.264;6.592;2022-09-28T08:08:40;15.10;99.90
51996;DHT22;38010;53.264;6.592;2022-09-28T08:11:13;15.10;99.90
51996;DHT22;38010;53.264;6.592;2022-09-28T08:13:39;15.10;99.90
51996;DHT22;38010;53.264;6.592;2022-09-28T08:16:08;15.10;99.90
51996;DHT22;38010;53.264;6.592;2022-09-28T08:18:34;15.10;99.90
51996;DHT22;38010;53.264;6.592;2022-09-28T08:21:02;15.10;99.90
51996;DHT22;38010;53.264;6.592;2022-09-28T08:23:46;15.10;99.90
51996;DHT22;38010;53.264;6.592;2022-09-28T08:26:12;15.10;99.90
51996;DHT22;38010;53.264;6.592;2022-09-28T08:28:37;15.00;99.90
51996;DHT22;38010;53.264;6.592;2022-09-28T08:31:04;15.10;99.90
51996;DHT22;38010;53.264;6.592;2022-09-28T08:33:32;15.00;99.90
51996;DHT22;38010;53.264;6.592;2022-09-28T08:35:59;15.10;99.90
51996;DHT22;38010;53.264;6.592;2022-09-28T08:38:27;15.10;99.90
51996;DHT22;38010;53.264;6.592;2022-09-28T08:41:22;15.10;99.90
51996;DHT22;38010;53.264;6.592;2022-09-28T08:46:30;15.10;99.90
51996;DHT22;38010;53.264;6.592;2022-09-28T08:48:59;15.10;99.90
51996;DHT22;38010;53.264;6.592;2022-09-28T08:51:33;15.10;99.90
51996;DHT22;38010;53.264;6.592;2022-09-28T08:54:04;15.10;99.90
51996;DHT22;38010;53.264;6.592;2022-09-28T08:59:50;15.10;99.90
51996;DHT22;38010;53.264;6.592;2022-09-28T09:02:26;15.10;99.90
51996;DHT22;38010;53.264;6.592;2022-09-28T09:04:53;15.10;99.90
51996;DHT22;38010;53.264;6.592;2022-09-28T09:24:25;15.10;99.90
51996;DHT22;38010;53.264;6.592;2022-09-28T09:27:02;15.00;99.90
51996;DHT22;38010;53.264;6.592;2022-09-28T09:29:53;15.10;99.90
51996;DHT22;38010;53.264;6.592;2022-09-28T09:38:06;15.10;99.90
51996;DHT22;38010;53.264;6.592;2022-09-28T09:40:45;15.10;99.90
51996;DHT22;38010;53.264;6.592;2022-09-28T09:48:43;15.10;99.90
51996;DHT22;38010;53.264;6.592;2022-09-28T09:53:54;15.10;99.90
51996;DHT22;38010;53.264;6.592;2022-09-28T09:56:45;15.10;99.90
51996;DHT22;38010;53.264;6.592;2022-09-28T09:59:17;15.10;99.90
51996;DHT22;38010;53.264;6.592;2022-09-28T10:01:44;15.10;99.90
51996;DHT22;38010;53.264;6.592;2022-09-28T10:06:46;15.10;99.90
51996;DHT22;38010;53.264;6.592;2022-09-28T10:09:25;15.10;99.90
51996;DHT22;38010;53.264;6.592;2022-09-28T10:11:51;15.10;99.90
51996;DHT22;38010;53.264;6.592;2022-09-28T10:14:19;15.10;99.90
51996;DHT22;38010;53.264;6.592;2022-09-28T10:16:46;15.10;99.90
51996;DHT22;38010;53.264;6.592;2022-09-28T10:19:13;15.10;99.90
51996;DHT22;38010;53.264;6.592;2022-09-28T10:21:40;15.10;99.90
51996;DHT22;38010;53.264;6.592;2022-09-28T10:24:16;15.10;99.90
51996;DHT22;38010;53.264;6.592;2022-09-28T10:26:45;15.10;99.90
51996;DHT22;38010;53.264;6.592;2022-09-28T10:29:20;15.10;99.90
51996;DHT22;38010;53.264;6.592;2022-09-28T10:31:48;15.10;99.90
51996;DHT22;38010;53.264;6.592;2022-09-28T10:34:15;15.10;99.90
51996;DHT22;38010;53.264;6.592;2022-09-28T10:36:45;15.10;99.90
51996;DHT22;38010;53.264;6.592;2022-09-28T10:41:54;15.10;99.90
51996;DHT22;38010;53.264;6.592;2022-09-28T10:44:21;15.10;99.90
51996;DHT22;38010;53.264;6.592;2022-09-28T10:46:59;15.10;99.90
51996;DHT22;38010;53.264;6.592;2022-09-28T10:49:26;15.10;99.90
51996;DHT22;38010;53.264;6.592;2022-09-28T10:51:54;15.10;99.90
51996;DHT22;38010;53.264;6.592;2022-09-28T10:54:25;15.10;99.90
51996;DHT22;38010;53.264;6.592;2022-09-28T10:56:53;15.10;99.90
51996;DHT22;38010;53.264;6.592;2022-09-28T11:02:01;15.10;99.90
51996;DHT22;38010;53.264;6.592;2022-09-28T11:04:33;15.10;99.90
51996;DHT22;38010;53.264;6.592;2022-09-28T11:07:02;15.10;99.90
51996;DHT22;38010;53.264;6.592;2022-09-28T11:09:35;15.10;99.90
51996;DHT22;38010;53.264;6.592;2022-09-28T11:12:03;15.10;99.90
51996;DHT22;38010;53.264;6.592;2022-09-28T11:14:35;15.10;99.90
51996;DHT22;38010;53.264;6.592;2022-09-28T11:17:36;15.10;99.90
51996;DHT22;38010;53.264;6.592;2022-09-28T11:20:32;15.10;99.90
51996;DHT22;38010;53.264;6.592;2022-09-28T11:23:19;15.10;99.90
51996;DHT22;38010;53.264;6.592;2022-09-28T11:26:06;15.10;99.90
51996;DHT22;38010;53.264;6.592;2022-09-28T11:28:35;15.10;99.90
51996;DHT22;38010;53.264;6.592;2022-09-28T11:31:02;15.10;99.90
51996;DHT22;38010;53.264;6.592;2022-09-28T11:33:39;15.10;99.90
51996;DHT22;38010;53.264;6.592;2022-09-28T11:41:16;15.20;99.90
51996;DHT22;38010;53.264;6.592;2022-09-28T11:46:39;15.20;99.90
51996;DHT22;38010;53.264;6.592;2022-09-28T11:49:32;15.20;99.90
51996;DHT22;38010;53.264;6.592;2022-09-28T11:52:02;15.20;99.90
51996;DHT22;38010;53.264;6.592;2022-09-28T11:54:43;15.20;99.90
51996;DHT22;38010;53.264;6.592;2022-09-28T11:57:18;15.20;99.90
51996;DHT22;38010;53.264;6.592;2022-09-28T12:05:12;15.10;99.90
51996;DHT22;38010;53.264;6.592;2022-09-28T12:07:46;15.10;99.90
51996;DHT22;38010;53.264;6.592;2022-09-28T12:10:27;15.10;99.90
51996;DHT22;38010;53.264;6.592;2022-09-28T12:13:07;15.10;99.90
51996;DHT22;38010;53.264;6.592;2022-09-28T12:18:13;15.10;99.90
51996;DHT22;38010;53.264;6.592;2022-09-28T12:20:46;15.10;99.90
51996;DHT22;38010;53.264;6.592;2022-09-28T12:23:17;15.10;99.90
51996;DHT22;38010;53.264;6.592;2022-09-28T12:26:01;15.10;99.90
51996;DHT22;38010;53.264;6.592;2022-09-28T12:28:44;15.20;99.90
51996;DHT22;38010;53.264;6.592;2022-09-28T12:31:37;15.20;99.90
51996;DHT22;38010;53.264;6.592;2022-09-28T12:34:04;15.20;99.90
51996;DHT22;38010;53.264;6.592;2022-09-28T12:36:51;15.20;99.90
51996;DHT22;38010;53.264;6.592;2022-09-28T12:39:42;15.20;99.90
51996;DHT22;38010;53.264;6.592;2022-09-28T12:42:52;15.20;99.90
51996;DHT22;38010;53.264;6.592;2022-09-28T12:45:40;15.30;99.90
51996;DHT22;38010;53.264;6.592;2022-09-28T12:53:46;15.30;99.90
51996;DHT22;38010;53.264;6.592;2022-09-28T12:56:32;15.30;99.90
51996;DHT22;38010;53.264;6.592;2022-09-28T12:59:20;15.30;99.90
51996;DHT22;38010;53.264;6.592;2022-09-28T13:01:56;15.30;99.90
51996;DHT22;38010;53.264;6.592;2022-09-28T13:07:47;15.30;99.90
51996;DHT22;38010;53.264;6.592;2022-09-28T13:23:32;15.70;99.90
51996;DHT22;38010;53.264;6.592;2022-09-28T13:29:00;16.00;99.90
51996;DHT22;38010;53.264;6.592;2022-09-28T13:31:30;16.10;99.90
51996;DHT22;38010;53.264;6.592;2022-09-28T13:33:59;16.20;99.90
51996;DHT22;38010;53.264;6.592;2022-09-28T13:38:56;16.30;99.90
51996;DHT22;38010;53.264;6.592;2022-09-28T13:41:31;16.40;99.90
51996;DHT22;38010;53.264;6.592;2022-09-28T13:44:26;16.40;99.90
51996;DHT22;38010;53.264;6.592;2022-09-28T14:06:29;16.60;99.90
51996;DHT22;38010;53.264;6.592;2022-09-28T14:14:43;16.50;99.90
51996;DHT22;38010;53.264;6.592;2022-09-28T14:20:00;16.30;99.90
51996;DHT22;38010;53.264;6.592;2022-09-28T14:30:20;16.10;99.90
51996;DHT22;38010;53.264;6.592;2022-09-28T14:32:57;16.10;99.90
51996;DHT22;38010;53.264;6.592;2022-09-28T14:35:39;16.10;99.90
51996;DHT22;38010;53.264;6.592;2022-09-28T14:38:20;16.20;99.90
51996;DHT22;38010;53.264;6.592;2022-09-28T14:41:06;16.20;99.90
51996;DHT22;38010;53.264;6.592;2022-09-28T14:48:50;16.30;99.90
51996;DHT22;38010;53.264;6.592;2022-09-28T14:53:53;16.30;99.90
51996;DHT22;38010;53.264;6.592;2022-09-28T14:56:20;16.30;99.90
51996;DHT22;38010;53.264;6.592;2022-09-28T14:58:53;16.30;99.90
51996;DHT22;38010;53.264;6.592;2022-09-28T15:01:21;16.30;99.90
51996;DHT22;38010;53.264;6.592;2022-09-28T15:03:55;16.30;99.90
51996;DHT22;38010;53.264;6.592;2022-09-28T15:06:24;16.20;99.90
51996;DHT22;38010;53.264;6.592;2022-09-28T15:08:51;16.20;99.90
51996;DHT22;38010;53.264;6.592;2022-09-28T15:11:20;16.10;99.90
51996;DHT22;38010;53.264;6.592;2022-09-28T15:13:48;16.10;99.90
51996;DHT22;38010;53.264;6.592;2022-09-28T15:16:22;16.10;99.90
51996;DHT22;38010;53.264;6.592;2022-09-28T15:21:17;16.10;99.90
51996;DHT22;38010;53.264;6.592;2022-09-28T15:23:44;16.10;99.90
51996;DHT22;38010;53.264;6.592;2022-09-28T15:26:22;16.00;99.90
51996;DHT22;38010;53.264;6.592;2022-09-28T15:28:48;16.00;99.90
51996;DHT22;38010;53.264;6.592;2022-09-28T15:31:19;16.00;99.90
51996;DHT22;38010;53.264;6.592;2022-09-28T15:33:45;16.00;99.90
51996;DHT22;38010;53.264;6.592;2022-09-28T15:36:46;15.90;99.90
51996;DHT22;38010;53.264;6.592;2022-09-28T15:39:16;15.90;99.90
51996;DHT22;38010;53.264;6.592;2022-09-28T15:41:44;15.90;99.90
51996;DHT22;38010;53.264;6.592;2022-09-28T15:46:40;15.90;99.90
51996;DHT22;38010;53.264;6.592;2022-09-28T15:49:21;15.90;99.90
51996;DHT22;38010;53.264;6.592;2022-09-28T15:51:53;15.90;99.90
51996;DHT22;38010;53.264;6.592;2022-09-28T15:54:24;15.90;99.90
51996;DHT22;38010;53.264;6.592;2022-09-28T15:56:55;15.80;99.90
51996;DHT22;38010;53.264;6.592;2022-09-28T15:59:37;15.80;99.90
51996;DHT22;38010;53.264;6.592;2022-09-28T16:02:16;15.80;99.90
51996;DHT22;38010;53.264;6.592;2022-09-28T16:12:42;15.80;99.90
51996;DHT22;38010;53.264;6.592;2022-09-28T16:17:56;15.80;99.90
51996;DHT22;38010;53.264;6.592;2022-09-28T16:20:38;15.80;99.90
51996;DHT22;38010;53.264;6.592;2022-09-28T16:23:23;15.80;99.90
51996;DHT22;38010;53.264;6.592;2022-09-28T16:31:06;15.80;99.90
51996;DHT22;38010;53.264;6.592;2022-09-28T16:33:54;15.70;99.90
51996;DHT22;38010;53.264;6.592;2022-09-28T16:36:21;15.70;99.90
51996;DHT22;38010;53.264;6.592;2022-09-28T16:38:47;15.70;99.90
51996;DHT22;38010;53.264;6.592;2022-09-28T16:41:16;15.70;99.90
51996;DHT22;38010;53.264;6.592;2022-09-28T16:43:44;15.70;99.90
51996;DHT22;38010;53.264;6.592;2022-09-28T16:46:12;15.70;99.90
51996;DHT22;38010;53.264;6.592;2022-09-28T16:48:43;15.70;99.90
51996;DHT22;38010;53.264;6.592;2022-09-28T16:51:14;15.70;99.90
51996;DHT22;38010;53.264;6.592;2022-09-28T16:53:40;15.70;99.90
51996;DHT22;38010;53.264;6.592;2022-09-28T16:56:26;15.60;99.90
51996;DHT22;38010;53.264;6.592;2022-09-28T16:58:53;15.70;99.90
51996;DHT22;38010;53.264;6.592;2022-09-28T17:01:20;15.70;99.90
51996;DHT22;38010;53.264;6.592;2022-09-28T17:03:46;15.70;99.90
51996;DHT22;38010;53.264;6.592;2022-09-28T17:06:18;15.70;99.90
51996;DHT22;38010;53.264;6.592;2022-09-28T17:08:45;15.70;99.90
51996;DHT22;38010;53.264;6.592;2022-09-28T17:11:18;15.70;99.90
51996;DHT22;38010;53.264;6.592;2022-09-28T17:13:45;15.70;99.90
51996;DHT22;38010;53.264;6.592;2022-09-28T17:16:17;15.70;99.90
51996;DHT22;38010;53.264;6.592;2022-09-28T17:18:44;15.70;99.90
51996;DHT22;38010;53.264;6.592;2022-09-28T17:21:12;15.70;99.90
51996;DHT22;38010;53.264;6.592;2022-09-28T17:23:41;15.70;99.90
51996;DHT22;38010;53.264;6.592;2022-09-28T17:26:07;15.70;99.90
51996;DHT22;38010;53.264;6.592;2022-09-28T17:28:35;15.70;99.90
51996;DHT22;38010;53.264;6.592;2022-09-28T17:31:03;15.70;99.90
51996;DHT22;38010;53.264;6.592;2022-09-28T17:33:28;15.70;99.90
51996;DHT22;38010;53.264;6.592;2022-09-28T17:36:01;15.70;99.90
51996;DHT22;38010;53.264;6.592;2022-09-28T17:38:29;15.70;99.90
51996;DHT22;38010;53.264;6.592;2022-09-28T17:40:55;15.70;99.90
51996;DHT22;38010;53.264;6.592;2022-09-28T17:43:20;15.70;99.90
51996;DHT22;38010;53.264;6.592;2022-09-28T17:45:47;15.70;99.90
51996;DHT22;38010;53.264;6.592;2022-09-28T17:48:15;15.70;99.90
51996;DHT22;38010;53.264;6.592;2022-09-28T17:50:43;15.70;99.90
51996;DHT22;38010;53.264;6.592;2022-09-28T17:53:11;15.70;99.90
51996;DHT22;38010;53.264;6.592;2022-09-28T17:55:38;15.70;99.90
51996;DHT22;38010;53.264;6.592;2022-09-28T17:58:18;15.70;99.90
51996;DHT22;38010;53.264;6.592;2022-09-28T18:00:49;15.70;99.90
51996;DHT22;38010;53.264;6.592;2022-09-28T18:03:20;15.70;99.90
51996;DHT22;38010;53.264;6.592;2022-09-28T18:05:47;15.70;99.90
51996;DHT22;38010;53.264;6.592;2022-09-28T18:08:18;15.70;99.90
51996;DHT22;38010;53.264;6.592;2022-09-28T18:10:44;15.70;99.90
51996;DHT22;38010;53.264;6.592;2022-09-28T18:13:13;15.70;99.90
51996;DHT22;38010;53.264;6.592;2022-09-28T18:15:39;15.60;99.90
51996;DHT22;38010;53.264;6.592;2022-09-28T18:18:05;15.60;99.90
51996;DHT22;38010;53.264;6.592;2022-09-28T18:20:35;15.60;99.90
51996;DHT22;38010;53.264;6.592;2022-09-28T18:23:01;15.60;99.90
51996;DHT22;38010;53.264;6.592;2022-09-28T18:25:27;15.60;99.90
51996;DHT22;38010;53.264;6.592;2022-09-28T18:27:54;15.60;99.90
51996;DHT22;38010;53.264;6.592;2022-09-28T18:30:23;15.60;99.90
51996;DHT22;38010;53.264;6.592;2022-09-28T18:32:49;15.60;99.90
51996;DHT22;38010;53.264;6.592;2022-09-28T18:35:15;15.60;99.90
51996;DHT22;38010;53.264;6.592;2022-09-28T18:37:41;15.60;99.90
51996;DHT22;38010;53.264;6.592;2022-09-28T18:40:08;15.60;99.90
51996;DHT22;38010;53.264;6.592;2022-09-28T18:42:34;15.60;99.90
51996;DHT22;38010;53.264;6.592;2022-09-28T18:45:05;15.60;99.90
51996;DHT22;38010;53.264;6.592;2022-09-28T18:47:32;15.60;99.90
51996;DHT22;38010;53.264;6.592;2022-09-28T18:49:59;15.60;99.90
51996;DHT22;38010;53.264;6.592;2022-09-28T18:52:25;15.60;99.90
51996;DHT22;38010;53.264;6.592;2022-09-28T18:54:51;15.60;99.90